sensor_id;sensor_type;location;lat;lon;timestamp;temperature;humidity
57088;DHT22;42965;52.846;6.614;2023-12-07T00:01:31;1.60;99.90
57088;DHT22;42965;52.846;6.614;2023-12-07T00:04:00;1.60;99.90
57088;DHT22;42965;52.846;6.614;2023-12-07T00:06:27;1.70;99.90
57088;DHT22;42965;52.846;6.614;2023-12-07T00:08:53;1.70;99.90
57088;DHT22;42965;52.846;6.614;2023-12-07T00:11:21;1.70;99.90
57088;DHT22;42965;52.846;6.614;2023-12-07T00:13:47;1.70;99.90
57088;DHT22;42965;52.846;6.614;2023-12-07T00:16:14;1.80;99.90
57088;DHT22;42965;52.846;6.614;2023-12-07T00:18:40;1.80;99.90
57088;DHT22;42965;52.846;6.614;2023-12-07T00:21:09;1.80;99.90
57088;DHT22;42965;52.846;6.614;2023-12-07T00:23:36;1.70;99.90
57088;DHT22;42965;52.846;6.614;2023-12-07T00:26:04;1.70;99.90
57088;DHT22;42965;52.846;6.614;2023-12-07T00:28:30;1.70;99.90
57088;DHT22;42965;52.846;6.614;2023-12-07T00:30:57;1.70;99.90
57088;DHT22;42965;52.846;6.614;2023-12-07T00:33:23;1.80;99.90
57088;DHT22;42965;52.846;6.614;2023-12-07T00:35:49;1.80;99.90
57088;DHT22;42965;52.846;6.614;2023-12-07T00:38:16;1.80;99.90
57088;DHT22;42965;52.846;6.614;2023-12-07T00:40:45;1.80;99.90
57088;DHT22;42965;52.846;6.614;2023-12-07T00:43:12;1.80;99.90
57088;DHT22;42965;52.846;6.614;2023-12-07T00:45:38;1.80;99.90
57088;DHT22;42965;52.846;6.614;2023-12-07T00:48:04;1.80;99.90
57088;DHT22;42965;52.846;6.614;2023-12-07T00:50:30;1.80;99.90
57088;DHT22;42965;52.846;6.614;2023-12-07T00:52:57;1.90;99.90
57088;DHT22;42965;52.846;6.614;2023-12-07T00:55:23;1.90;99.90
57088;DHT22;42965;52.846;6.614;2023-12-07T00:57:49;1.90;99.90
57088;DHT22;42965;52.846;6.614;2023-12-07T01:00:16;1.90;99.90
57088;DHT22;42965;52.846;6.614;2023-12-07T01:02:42;1.90;99.90
57088;DHT22;42965;52.846;6.614;2023-12-07T01:05:08;2.00;99.90
57088;DHT22;42965;52.846;6.614;2023-12-07T01:07:34;2.00;99.90
57088;DHT22;42965;52.846;6.614;2023-12-07T01:10:01;1.90;99.90
57088;DHT22;42965;52.846;6.614;2023-12-07T01:12:27;1.90;99.90
57088;DHT22;42965;52.846;6.614;2023-12-07T01:14:53;2.00;99.90
57088;DHT22;42965;52.846;6.614;2023-12-07T01:17:19;1.90;99.90
57088;DHT22;42965;52.846;6.614;2023-12-07T01:19:46;1.90;99.90
57088;DHT22;42965;52.846;6.614;2023-12-07T01:22:12;1.90;99.90
57088;DHT22;42965;52.846;6.614;2023-12-07T01:24:39;2.00;99.90
57088;DHT22;42965;52.846;6.614;2023-12-07T01:27:05;1.90;99.90
57088;DHT22;42965;52.846;6.614;2023-12-07T01:29:31;1.90;99.90
57088;DHT22;42965;52.846;6.614;2023-12-07T01:31:57;1.90;99.90
57088;DHT22;42965;52.846;6.614;2023-12-07T01:34:23;1.90;99.90
57088;DHT22;42965;52.846;6.614;2023-12-07T01:36:50;1.90;99.90
57088;DHT22;42965;52.846;6.614;2023-12-07T01:39:16;1.90;99.90
57088;DHT22;42965;52.846;6.614;2023-12-07T01:41:43;1.90;99.90
57088;DHT22;42965;52.846;6.614;2023-12-07T01:44:29;1.90;99.90
57088;DHT22;42965;52.846;6.614;2023-12-07T01:46:55;1.90;99.90
57088;DHT22;42965;52.846;6.614;2023-12-07T01:49:22;1.90;99.90
57088;DHT22;42965;52.846;6.614;2023-12-07T01:51:48;1.90;99.90
57088;DHT22;42965;52.846;6.614;2023-12-07T01:54:14;1.80;99.90
57088;DHT22;42965;52.846;6.614;2023-12-07T01:56:40;1.80;99.90
57088;DHT22;42965;52.846;6.614;2023-12-07T01:59:08;1.90;99.90
57088;DHT22;42965;52.846;6.614;2023-12-07T02:01:35;1.80;99.90
57088;DHT22;42965;52.846;6.614;2023-12-07T02:04:01;1.80;99.90
57088;DHT22;42965;52.846;6.614;2023-12-07T02:06:30;1.80;99.90
57088;DHT22;42965;52.846;6.614;2023-12-07T02:08:57;1.80;99.90
57088;DHT22;42965;52.846;6.614;2023-12-07T02:11:43;1.80;99.90
57088;DHT22;42965;52.846;6.614;2023-12-07T02:14:29;1.80;99.90
57088;DHT22;42965;52.846;6.614;2023-12-07T02:17:02;1.80;99.90
57088;DHT22;42965;52.846;6.614;2023-12-07T02:20:06;1.80;99.90
57088;DHT22;42965;52.846;6.614;2023-12-07T02:22:43;1.90;99.90
57088;DHT22;42965;52.846;6.614;2023-12-07T02:25:13;1.80;99.90
57088;DHT22;42965;52.846;6.614;2023-12-07T02:27:44;1.80;99.90
57088;DHT22;42965;52.846;6.614;2023-12-07T02:30:14;1.70;99.90
57088;DHT22;42965;52.846;6.614;2023-12-07T02:32:43;1.70;99.90
57088;DHT22;42965;52.846;6.614;2023-12-07T02:35:11;1.60;99.90
57088;DHT22;42965;52.846;6.614;2023-12-07T02:37:51;1.60;99.90
57088;DHT22;42965;52.846;6.614;2023-12-07T02:40:39;1.50;99.90
57088;DHT22;42965;52.846;6.614;2023-12-07T02:43:07;1.40;99.90
57088;DHT22;42965;52.846;6.614;2023-12-07T02:45:34;1.40;99.90
57088;DHT22;42965;52.846;6.614;2023-12-07T02:48:00;1.30;99.90
57088;DHT22;42965;52.846;6.614;2023-12-07T02:50:27;1.20;99.90
57088;DHT22;42965;52.846;6.614;2023-12-07T02:52:53;1.20;99.90
57088;DHT22;42965;52.846;6.614;2023-12-07T02:55:19;1.20;99.90
57088;DHT22;42965;52.846;6.614;2023-12-07T02:57:46;1.10;99.90
57088;DHT22;42965;52.846;6.614;2023-12-07T03:00:12;1.00;99.90
57088;DHT22;42965;52.846;6.614;2023-12-07T03:02:40;1.00;99.90
57088;DHT22;42965;52.846;6.614;2023-12-07T03:05:07;0.90;99.90
57088;DHT22;42965;52.846;6.614;2023-12-07T03:07:34;0.90;99.90
57088;DHT22;42965;52.846;6.614;2023-12-07T03:10:01;0.90;99.90
57088;DHT22;42965;52.846;6.614;2023-12-07T03:12:31;0.90;99.90
57088;DHT22;42965;52.846;6.614;2023-12-07T03:14:57;0.80;99.90
57088;DHT22;42965;52.846;6.614;2023-12-07T03:17:24;0.80;99.90
57088;DHT22;42965;52.846;6.614;2023-12-07T03:19:50;0.80;99.90
57088;DHT22;42965;52.846;6.614;2023-12-07T03:22:36;0.80;99.90
57088;DHT22;42965;52.846;6.614;2023-12-07T03:25:03;0.70;99.90
57088;DHT22;42965;52.846;6.614;2023-12-07T03:27:29;0.60;99.90
57088;DHT22;42965;52.846;6.614;2023-12-07T03:29:55;0.60;99.90
57088;DHT22;42965;52.846;6.614;2023-12-07T03:32:21;0.60;99.90
57088;DHT22;42965;52.846;6.614;2023-12-07T03:34:48;0.60;99.90
57088;DHT22;42965;52.846;6.614;2023-12-07T03:37:14;0.60;99.90
57088;DHT22;42965;52.846;6.614;2023-12-07T03:39:41;0.60;99.90
57088;DHT22;42965;52.846;6.614;2023-12-07T03:42:09;0.60;99.90
57088;DHT22;42965;52.846;6.614;2023-12-07T03:44:37;0.60;99.90
57088;DHT22;42965;52.846;6.614;2023-12-07T03:47:03;0.60;99.90
57088;DHT22;42965;52.846;6.614;2023-12-07T03:49:29;0.60;99.90
57088;DHT22;42965;52.846;6.614;2023-12-07T03:51:56;0.50;99.90
57088;DHT22;42965;52.846;6.614;2023-12-07T03:54:22;0.40;99.90
57088;DHT22;42965;52.846;6.614;2023-12-07T03:56:48;0.40;99.90
57088;DHT22;42965;52.846;6.614;2023-12-07T03:59:15;0.40;99.90
57088;DHT22;42965;52.846;6.614;2023-12-07T04:01:42;0.40;99.90
57088;DHT22;42965;52.846;6.614;2023-12-07T04:04:08;0.30;99.90
57088;DHT22;42965;52.846;6.614;2023-12-07T04:06:34;0.30;99.90
57088;DHT22;42965;52.846;6.614;2023-12-07T04:09:00;0.30;99.90
57088;DHT22;42965;52.846;6.614;2023-12-07T04:11:27;0.20;99.90
57088;DHT22;42965;52.846;6.614;2023-12-07T04:13:53;0.30;99.90
57088;DHT22;42965;52.846;6.614;2023-12-07T04:16:19;0.30;99.90
57088;DHT22;42965;52.846;6.614;2023-12-07T04:18:45;0.30;99.90
57088;DHT22;42965;52.846;6.614;2023-12-07T04:21:12;0.30;99.90
57088;DHT22;42965;52.846;6.614;2023-12-07T04:23:39;0.30;99.90
57088;DHT22;42965;52.846;6.614;2023-12-07T04:26:06;0.40;99.90
57088;DHT22;42965;52.846;6.614;2023-12-07T04:28:32;0.30;99.90
57088;DHT22;42965;52.846;6.614;2023-12-07T04:31:19;0.30;99.90
57088;DHT22;42965;52.846;6.614;2023-12-07T04:33:45;0.30;99.90
57088;DHT22;42965;52.846;6.614;2023-12-07T04:36:14;0.30;99.90
57088;DHT22;42965;52.846;6.614;2023-12-07T04:38:40;0.30;99.90
57088;DHT22;42965;52.846;6.614;2023-12-07T04:41:07;0.20;99.90
57088;DHT22;42965;52.846;6.614;2023-12-07T04:43:33;0.20;99.90
57088;DHT22;42965;52.846;6.614;2023-12-07T04:46:00;0.30;99.90
57088;DHT22;42965;52.846;6.614;2023-12-07T04:48:27;0.20;99.90
57088;DHT22;42965;52.846;6.614;2023-12-07T04:50:53;0.20;99.90
57088;DHT22;42965;52.846;6.614;2023-12-07T04:53:19;0.20;99.90
57088;DHT22;42965;52.846;6.614;2023-12-07T04:55:45;0.20;99.90
57088;DHT22;42965;52.846;6.614;2023-12-07T04:58:16;0.20;99.90
57088;DHT22;42965;52.846;6.614;2023-12-07T05:00:42;0.20;99.90
57088;DHT22;42965;52.846;6.614;2023-12-07T05:03:08;0.10;99.90
57088;DHT22;42965;52.846;6.614;2023-12-07T05:05:35;0.10;99.90
57088;DHT22;42965;52.846;6.614;2023-12-07T05:08:02;0.20;99.90
57088;DHT22;42965;52.846;6.614;2023-12-07T05:10:29;0.10;99.90
57088;DHT22;42965;52.846;6.614;2023-12-07T05:12:55;0.10;99.90
57088;DHT22;42965;52.846;6.614;2023-12-07T05:15:22;0.20;99.90
57088;DHT22;42965;52.846;6.614;2023-12-07T05:17:49;0.10;99.90
57088;DHT22;42965;52.846;6.614;2023-12-07T05:20:15;0.10;99.90
57088;DHT22;42965;52.846;6.614;2023-12-07T05:22:44;0.10;99.90
57088;DHT22;42965;52.846;6.614;2023-12-07T05:25:10;0.10;99.90
57088;DHT22;42965;52.846;6.614;2023-12-07T05:27:36;0.10;99.90
57088;DHT22;42965;52.846;6.614;2023-12-07T05:30:03;0.00;99.90
57088;DHT22;42965;52.846;6.614;2023-12-07T05:32:30;0.10;99.90
57088;DHT22;42965;52.846;6.614;2023-12-07T05:34:56;0.10;99.90
57088;DHT22;42965;52.846;6.614;2023-12-07T05:37:22;0.10;99.90
57088;DHT22;42965;52.846;6.614;2023-12-07T05:39:51;0.10;99.90
57088;DHT22;42965;52.846;6.614;2023-12-07T05:42:18;0.10;99.90
57088;DHT22;42965;52.846;6.614;2023-12-07T05:44:44;0.10;99.90
57088;DHT22;42965;52.846;6.614;2023-12-07T05:47:11;0.00;99.90
57088;DHT22;42965;52.846;6.614;2023-12-07T05:49:38;0.00;99.90
57088;DHT22;42965;52.846;6.614;2023-12-07T05:52:04;0.00;99.90
57088;DHT22;42965;52.846;6.614;2023-12-07T05:54:32;0.00;99.90
57088;DHT22;42965;52.846;6.614;2023-12-07T05:56:58;0.10;99.90
57088;DHT22;42965;52.846;6.614;2023-12-07T05:59:24;0.00;99.90
57088;DHT22;42965;52.846;6.614;2023-12-07T06:01:54;0.00;99.90
57088;DHT22;42965;52.846;6.614;2023-12-07T06:04:20;0.00;99.90
57088;DHT22;42965;52.846;6.614;2023-12-07T06:06:46;0.00;99.90
57088;DHT22;42965;52.846;6.614;2023-12-07T06:09:13;0.00;99.90
57088;DHT22;42965;52.846;6.614;2023-12-07T06:11:40;0.00;99.90
57088;DHT22;42965;52.846;6.614;2023-12-07T06:14:06;-0.10;99.90
57088;DHT22;42965;52.846;6.614;2023-12-07T06:16:33;0.00;99.90
57088;DHT22;42965;52.846;6.614;2023-12-07T06:19:19;-0.10;99.90
57088;DHT22;42965;52.846;6.614;2023-12-07T06:21:46;-0.10;99.90
57088;DHT22;42965;52.846;6.614;2023-12-07T06:24:12;-0.10;99.90
57088;DHT22;42965;52.846;6.614;2023-12-07T06:26:40;0.00;99.90
57088;DHT22;42965;52.846;6.614;2023-12-07T06:29:06;-0.10;99.90
57088;DHT22;42965;52.846;6.614;2023-12-07T06:31:33;-0.10;99.90
57088;DHT22;42965;52.846;6.614;2023-12-07T06:34:00;-0.10;99.90
57088;DHT22;42965;52.846;6.614;2023-12-07T06:36:26;-0.20;99.90
57088;DHT22;42965;52.846;6.614;2023-12-07T06:38:53;-0.20;99.90
57088;DHT22;42965;52.846;6.614;2023-12-07T06:41:21;-0.30;99.90
57088;DHT22;42965;52.846;6.614;2023-12-07T06:43:47;-0.30;99.90
57088;DHT22;42965;52.846;6.614;2023-12-07T06:46:13;-0.30;99.90
57088;DHT22;42965;52.846;6.614;2023-12-07T06:48:44;-0.30;99.90
57088;DHT22;42965;52.846;6.614;2023-12-07T06:51:12;-0.30;99.90
57088;DHT22;42965;52.846;6.614;2023-12-07T06:53:41;-0.40;99.90
57088;DHT22;42965;52.846;6.614;2023-12-07T06:56:08;-0.30;99.90
57088;DHT22;42965;52.846;6.614;2023-12-07T06:58:34;-0.30;99.90
57088;DHT22;42965;52.846;6.614;2023-12-07T07:01:01;-0.20;99.90
57088;DHT22;42965;52.846;6.614;2023-12-07T07:03:27;-0.30;99.90
57088;DHT22;42965;52.846;6.614;2023-12-07T07:05:54;-0.30;99.90
57088;DHT22;42965;52.846;6.614;2023-12-07T07:08:20;-0.30;99.90
57088;DHT22;42965;52.846;6.614;2023-12-07T07:10:47;-0.30;99.90
57088;DHT22;42965;52.846;6.614;2023-12-07T07:13:13;-0.30;99.90
57088;DHT22;42965;52.846;6.614;2023-12-07T07:15:42;-0.40;99.90
57088;DHT22;42965;52.846;6.614;2023-12-07T07:18:09;-0.40;99.90
57088;DHT22;42965;52.846;6.614;2023-12-07T07:20:35;-0.40;99.90
57088;DHT22;42965;52.846;6.614;2023-12-07T07:23:02;-0.40;99.90
57088;DHT22;42965;52.846;6.614;2023-12-07T07:25:28;-0.40;99.90
57088;DHT22;42965;52.846;6.614;2023-12-07T07:27:54;-0.50;99.90
57088;DHT22;42965;52.846;6.614;2023-12-07T07:30:21;-0.50;99.90
57088;DHT22;42965;52.846;6.614;2023-12-07T07:32:47;-0.40;99.90
57088;DHT22;42965;52.846;6.614;2023-12-07T07:35:14;-0.50;99.90
57088;DHT22;42965;52.846;6.614;2023-12-07T07:38:01;-0.40;99.90
57088;DHT22;42965;52.846;6.614;2023-12-07T07:40:27;-0.50;99.90
57088;DHT22;42965;52.846;6.614;2023-12-07T07:42:53;-0.50;99.90
57088;DHT22;42965;52.846;6.614;2023-12-07T07:45:19;-0.50;99.90
57088;DHT22;42965;52.846;6.614;2023-12-07T07:47:46;-0.50;99.90
57088;DHT22;42965;52.846;6.614;2023-12-07T07:50:14;-0.50;99.90
57088;DHT22;42965;52.846;6.614;2023-12-07T07:52:40;-0.50;99.90
57088;DHT22;42965;52.846;6.614;2023-12-07T07:55:06;-0.50;99.90
57088;DHT22;42965;52.846;6.614;2023-12-07T07:57:33;-0.50;99.90
57088;DHT22;42965;52.846;6.614;2023-12-07T07:59:59;-0.50;99.90
57088;DHT22;42965;52.846;6.614;2023-12-07T08:02:25;-0.50;99.90
57088;DHT22;42965;52.846;6.614;2023-12-07T08:04:52;-0.40;99.90
57088;DHT22;42965;52.846;6.614;2023-12-07T08:07:18;-0.30;99.90
57088;DHT22;42965;52.846;6.614;2023-12-07T08:09:44;-0.10;99.90
57088;DHT22;42965;52.846;6.614;2023-12-07T08:12:11;0.20;99.90
57088;DHT22;42965;52.846;6.614;2023-12-07T08:14:38;0.20;99.90
57088;DHT22;42965;52.846;6.614;2023-12-07T08:17:04;0.20;99.90
57088;DHT22;42965;52.846;6.614;2023-12-07T08:19:30;0.20;99.90
57088;DHT22;42965;52.846;6.614;2023-12-07T08:21:56;0.30;99.90
57088;DHT22;42965;52.846;6.614;2023-12-07T08:24:23;0.50;99.90
57088;DHT22;42965;52.846;6.614;2023-12-07T08:26:51;0.70;99.90
57088;DHT22;42965;52.846;6.614;2023-12-07T08:29:17;0.80;99.90
57088;DHT22;42965;52.846;6.614;2023-12-07T08:31:43;0.90;99.90
57088;DHT22;42965;52.846;6.614;2023-12-07T08:34:13;0.90;99.90
57088;DHT22;42965;52.846;6.614;2023-12-07T08:36:39;1.00;99.90
57088;DHT22;42965;52.846;6.614;2023-12-07T08:39:06;1.30;99.90
57088;DHT22;42965;52.846;6.614;2023-12-07T08:41:36;1.50;99.90
57088;DHT22;42965;52.846;6.614;2023-12-07T08:44:05;1.50;99.90
57088;DHT22;42965;52.846;6.614;2023-12-07T08:46:31;1.60;99.90
57088;DHT22;42965;52.846;6.614;2023-12-07T08:49:17;1.60;99.90
57088;DHT22;42965;52.846;6.614;2023-12-07T08:51:44;1.80;99.90
57088;DHT22;42965;52.846;6.614;2023-12-07T08:54:31;1.70;99.90
57088;DHT22;42965;52.846;6.614;2023-12-07T08:56:57;1.70;99.90
57088;DHT22;42965;52.846;6.614;2023-12-07T08:59:24;1.80;99.90
57088;DHT22;42965;52.846;6.614;2023-12-07T09:01:50;1.80;99.90
57088;DHT22;42965;52.846;6.614;2023-12-07T09:04:16;1.90;99.90
57088;DHT22;42965;52.846;6.614;2023-12-07T09:06:43;1.90;99.90
57088;DHT22;42965;52.846;6.614;2023-12-07T09:09:09;1.90;99.90
57088;DHT22;42965;52.846;6.614;2023-12-07T09:11:37;1.80;99.90
57088;DHT22;42965;52.846;6.614;2023-12-07T09:14:03;1.80;99.90
57088;DHT22;42965;52.846;6.614;2023-12-07T09:16:30;1.80;99.90
57088;DHT22;42965;52.846;6.614;2023-12-07T09:18:56;1.80;99.90
57088;DHT22;42965;52.846;6.614;2023-12-07T09:21:22;1.80;99.90
57088;DHT22;42965;52.846;6.614;2023-12-07T09:23:48;1.70;99.90
57088;DHT22;42965;52.846;6.614;2023-12-07T09:26:14;1.50;99.90
57088;DHT22;42965;52.846;6.614;2023-12-07T09:28:44;1.60;99.90
57088;DHT22;42965;52.846;6.614;2023-12-07T09:31:10;1.60;99.90
57088;DHT22;42965;52.846;6.614;2023-12-07T09:33:37;1.50;99.90
57088;DHT22;42965;52.846;6.614;2023-12-07T09:36:03;1.40;99.90
57088;DHT22;42965;52.846;6.614;2023-12-07T09:38:35;1.40;99.90
57088;DHT22;42965;52.846;6.614;2023-12-07T09:41:03;1.50;99.90
57088;DHT22;42965;52.846;6.614;2023-12-07T09:43:29;1.60;99.90
57088;DHT22;42965;52.846;6.614;2023-12-07T09:45:57;1.70;99.90
57088;DHT22;42965;52.846;6.614;2023-12-07T09:48:24;1.50;99.90
57088;DHT22;42965;52.846;6.614;2023-12-07T09:50:51;1.60;99.90
57088;DHT22;42965;52.846;6.614;2023-12-07T09:53:19;1.60;99.90
57088;DHT22;42965;52.846;6.614;2023-12-07T09:55:46;1.60;99.90
57088;DHT22;42965;52.846;6.614;2023-12-07T09:58:12;1.60;99.90
57088;DHT22;42965;52.846;6.614;2023-12-07T10:00:39;1.60;99.90
57088;DHT22;42965;52.846;6.614;2023-12-07T10:03:06;1.60;99.90
57088;DHT22;42965;52.846;6.614;2023-12-07T10:05:56;1.50;99.90
57088;DHT22;42965;52.846;6.614;2023-12-07T10:08:31;1.50;99.90
57088;DHT22;42965;52.846;6.614;2023-12-07T10:11:07;1.50;99.90
57088;DHT22;42965;52.846;6.614;2023-12-07T10:13:35;1.50;99.90
57088;DHT22;42965;52.846;6.614;2023-12-07T10:16:12;1.50;99.90
57088;DHT22;42965;52.846;6.614;2023-12-07T10:18:42;1.60;99.90
57088;DHT22;42965;52.846;6.614;2023-12-07T10:21:09;1.60;99.90
57088;DHT22;42965;52.846;6.614;2023-12-07T10:23:40;1.60;99.90
57088;DHT22;42965;52.846;6.614;2023-12-07T10:26:10;1.60;99.90
57088;DHT22;42965;52.846;6.614;2023-12-07T10:28:39;1.70;99.90
57088;DHT22;42965;52.846;6.614;2023-12-07T10:31:09;1.60;99.90
57088;DHT22;42965;52.846;6.614;2023-12-07T10:33:36;1.80;99.90
57088;DHT22;42965;52.846;6.614;2023-12-07T10:36:03;1.90;99.90
57088;DHT22;42965;52.846;6.614;2023-12-07T10:38:30;1.80;99.90
57088;DHT22;42965;52.846;6.614;2023-12-07T10:41:09;1.90;99.90
57088;DHT22;42965;52.846;6.614;2023-12-07T10:43:42;2.00;99.90
57088;DHT22;42965;52.846;6.614;2023-12-07T10:46:09;2.00;99.90
57088;DHT22;42965;52.846;6.614;2023-12-07T10:48:36;2.00;99.90
57088;DHT22;42965;52.846;6.614;2023-12-07T10:51:07;1.90;99.90
57088;DHT22;42965;52.846;6.614;2023-12-07T10:53:42;2.00;99.90
57088;DHT22;42965;52.846;6.614;2023-12-07T10:56:29;1.90;99.90
57088;DHT22;42965;52.846;6.614;2023-12-07T10:58:58;2.00;99.90
57088;DHT22;42965;52.846;6.614;2023-12-07T11:01:25;2.00;99.90
57088;DHT22;42965;52.846;6.614;2023-12-07T11:03:53;1.90;99.90
57088;DHT22;42965;52.846;6.614;2023-12-07T11:06:20;1.90;99.90
57088;DHT22;42965;52.846;6.614;2023-12-07T11:08:54;1.90;99.90
57088;DHT22;42965;52.846;6.614;2023-12-07T11:11:51;1.80;99.90
57088;DHT22;42965;52.846;6.614;2023-12-07T11:14:19;1.90;99.90
57088;DHT22;42965;52.846;6.614;2023-12-07T11:16:46;1.90;99.90
57088;DHT22;42965;52.846;6.614;2023-12-07T11:22:07;1.80;99.90
57088;DHT22;42965;52.846;6.614;2023-12-07T11:24:33;1.80;99.90
57088;DHT22;42965;52.846;6.614;2023-12-07T11:27:02;1.90;99.90
57088;DHT22;42965;52.846;6.614;2023-12-07T11:29:29;1.80;99.90
57088;DHT22;42965;52.846;6.614;2023-12-07T11:32:05;1.80;99.90
57088;DHT22;42965;52.846;6.614;2023-12-07T11:34:40;1.80;99.90
57088;DHT22;42965;52.846;6.614;2023-12-07T11:37:08;1.80;99.90
57088;DHT22;42965;52.846;6.614;2023-12-07T11:39:44;1.90;99.90
57088;DHT22;42965;52.846;6.614;2023-12-07T11:42:19;1.90;99.90
57088;DHT22;42965;52.846;6.614;2023-12-07T11:44:48;1.90;99.90
57088;DHT22;42965;52.846;6.614;2023-12-07T11:47:16;2.00;99.90
57088;DHT22;42965;52.846;6.614;2023-12-07T11:49:43;1.90;99.90
57088;DHT22;42965;52.846;6.614;2023-12-07T11:52:18;1.90;99.90
57088;DHT22;42965;52.846;6.614;2023-12-07T11:54:46;2.00;99.90
57088;DHT22;42965;52.846;6.614;2023-12-07T11:57:17;2.00;99.90
57088;DHT22;42965;52.846;6.614;2023-12-07T11:59:46;2.10;99.90
57088;DHT22;42965;52.846;6.614;2023-12-07T12:02:15;1.90;99.90
57088;DHT22;42965;52.846;6.614;2023-12-07T12:04:42;1.80;99.90
57088;DHT22;42965;52.846;6.614;2023-12-07T12:07:30;1.70;99.90
57088;DHT22;42965;52.846;6.614;2023-12-07T12:09:56;1.70;99.90
57088;DHT22;42965;52.846;6.614;2023-12-07T12:12:22;1.60;99.90
57088;DHT22;42965;52.846;6.614;2023-12-07T12:14:49;1.50;99.90
57088;DHT22;42965;52.846;6.614;2023-12-07T12:17:15;1.50;99.90
57088;DHT22;42965;52.846;6.614;2023-12-07T12:19:42;1.50;99.90
57088;DHT22;42965;52.846;6.614;2023-12-07T12:22:09;1.60;99.90
57088;DHT22;42965;52.846;6.614;2023-12-07T12:24:35;1.50;99.90
57088;DHT22;42965;52.846;6.614;2023-12-07T12:27:03;1.60;99.90
57088;DHT22;42965;52.846;6.614;2023-12-07T12:29:30;1.50;99.90
57088;DHT22;42965;52.846;6.614;2023-12-07T12:32:17;1.50;99.90
57088;DHT22;42965;52.846;6.614;2023-12-07T12:34:43;1.50;99.90
57088;DHT22;42965;52.846;6.614;2023-12-07T12:37:09;1.50;99.90
57088;DHT22;42965;52.846;6.614;2023-12-07T12:39:36;1.50;99.90
57088;DHT22;42965;52.846;6.614;2023-12-07T12:42:02;1.50;99.90
57088;DHT22;42965;52.846;6.614;2023-12-07T12:44:31;1.60;99.90
57088;DHT22;42965;52.846;6.614;2023-12-07T12:46:57;1.60;99.90
57088;DHT22;42965;52.846;6.614;2023-12-07T12:49:35;1.60;99.90
57088;DHT22;42965;52.846;6.614;2023-12-07T12:52:02;1.60;99.90
57088;DHT22;42965;52.846;6.614;2023-12-07T12:54:31;1.60;99.90
57088;DHT22;42965;52.846;6.614;2023-12-07T12:57:02;1.60;99.90
57088;DHT22;42965;52.846;6.614;2023-12-07T12:59:28;1.60;99.90
57088;DHT22;42965;52.846;6.614;2023-12-07T13:01:55;1.50;99.90
57088;DHT22;42965;52.846;6.614;2023-12-07T13:04:22;1.60;99.90
57088;DHT22;42965;52.846;6.614;2023-12-07T13:06:49;1.70;99.90
57088;DHT22;42965;52.846;6.614;2023-12-07T13:09:15;1.70;99.90
57088;DHT22;42965;52.846;6.614;2023-12-07T13:11:42;1.70;99.90
57088;DHT22;42965;52.846;6.614;2023-12-07T13:14:29;1.70;99.90
57088;DHT22;42965;52.846;6.614;2023-12-07T13:16:55;1.70;99.90
57088;DHT22;42965;52.846;6.614;2023-12-07T13:19:41;1.70;99.90
57088;DHT22;42965;52.846;6.614;2023-12-07T13:22:08;1.80;99.90
57088;DHT22;42965;52.846;6.614;2023-12-07T13:24:34;1.70;99.90
57088;DHT22;42965;52.846;6.614;2023-12-07T13:27:01;1.80;99.90
57088;DHT22;42965;52.846;6.614;2023-12-07T13:29:28;1.80;99.90
57088;DHT22;42965;52.846;6.614;2023-12-07T13:31:54;1.80;99.90
57088;DHT22;42965;52.846;6.614;2023-12-07T13:34:20;1.80;99.90
57088;DHT22;42965;52.846;6.614;2023-12-07T13:36:47;1.90;99.90
57088;DHT22;42965;52.846;6.614;2023-12-07T13:39:15;1.90;99.90
57088;DHT22;42965;52.846;6.614;2023-12-07T13:41:41;1.90;99.90
57088;DHT22;42965;52.846;6.614;2023-12-07T13:44:08;1.90;99.90
57088;DHT22;42965;52.846;6.614;2023-12-07T13:46:34;1.90;99.90
57088;DHT22;42965;52.846;6.614;2023-12-07T13:49:03;1.90;99.90
57088;DHT22;42965;52.846;6.614;2023-12-07T13:51:29;1.90;99.90
57088;DHT22;42965;52.846;6.614;2023-12-07T13:53:55;2.00;99.90
57088;DHT22;42965;52.846;6.614;2023-12-07T13:56:22;2.00;99.90
57088;DHT22;42965;52.846;6.614;2023-12-07T13:58:50;2.00;99.90
57088;DHT22;42965;52.846;6.614;2023-12-07T14:01:18;2.10;99.90
57088;DHT22;42965;52.846;6.614;2023-12-07T14:03:44;2.10;99.90
57088;DHT22;42965;52.846;6.614;2023-12-07T14:06:11;2.10;99.90
57088;DHT22;42965;52.846;6.614;2023-12-07T14:08:38;2.10;99.90
57088;DHT22;42965;52.846;6.614;2023-12-07T14:11:05;2.20;99.90
57088;DHT22;42965;52.846;6.614;2023-12-07T14:13:31;2.20;99.90
57088;DHT22;42965;52.846;6.614;2023-12-07T14:15:57;2.20;99.90
57088;DHT22;42965;52.846;6.614;2023-12-07T14:18:24;2.30;99.90
57088;DHT22;42965;52.846;6.614;2023-12-07T14:20:50;2.30;99.90
57088;DHT22;42965;52.846;6.614;2023-12-07T14:23:16;2.30;99.90
57088;DHT22;42965;52.846;6.614;2023-12-07T14:25:42;2.30;99.90
57088;DHT22;42965;52.846;6.614;2023-12-07T14:28:12;2.40;99.90
57088;DHT22;42965;52.846;6.614;2023-12-07T14:30:38;2.40;99.90
57088;DHT22;42965;52.846;6.614;2023-12-07T14:33:05;2.30;99.90
57088;DHT22;42965;52.846;6.614;2023-12-07T14:35:31;2.40;99.90
57088;DHT22;42965;52.846;6.614;2023-12-07T14:38:17;2.40;99.90
57088;DHT22;42965;52.846;6.614;2023-12-07T14:40:43;2.40;99.90
57088;DHT22;42965;52.846;6.614;2023-12-07T14:43:09;2.50;99.90
57088;DHT22;42965;52.846;6.614;2023-12-07T14:45:36;2.40;99.90
57088;DHT22;42965;52.846;6.614;2023-12-07T14:48:02;2.50;99.90
57088;DHT22;42965;52.846;6.614;2023-12-07T14:50:28;2.50;99.90
57088;DHT22;42965;52.846;6.614;2023-12-07T14:52:54;2.50;99.90
57088;DHT22;42965;52.846;6.614;2023-12-07T14:55:21;2.50;99.90
57088;DHT22;42965;52.846;6.614;2023-12-07T14:57:47;2.50;99.90
57088;DHT22;42965;52.846;6.614;2023-12-07T15:00:15;2.60;99.90
57088;DHT22;42965;52.846;6.614;2023-12-07T15:02:41;2.60;99.90
57088;DHT22;42965;52.846;6.614;2023-12-07T15:05:08;2.60;99.90
57088;DHT22;42965;52.846;6.614;2023-12-07T15:07:34;2.60;99.90
57088;DHT22;42965;52.846;6.614;2023-12-07T15:10:01;2.60;99.90
57088;DHT22;42965;52.846;6.614;2023-12-07T15:12:29;2.60;99.90
57088;DHT22;42965;52.846;6.614;2023-12-07T15:14:55;2.60;99.90
57088;DHT22;42965;52.846;6.614;2023-12-07T15:17:22;2.60;99.90
57088;DHT22;42965;52.846;6.614;2023-12-07T15:19:49;2.70;99.90
57088;DHT22;42965;52.846;6.614;2023-12-07T15:22:15;2.70;99.90
57088;DHT22;42965;52.846;6.614;2023-12-07T15:24:41;2.70;99.90
57088;DHT22;42965;52.846;6.614;2023-12-07T15:27:08;2.70;99.90
57088;DHT22;42965;52.846;6.614;2023-12-07T15:29:34;2.70;99.90
57088;DHT22;42965;52.846;6.614;2023-12-07T15:32:00;2.70;99.90
57088;DHT22;42965;52.846;6.614;2023-12-07T15:34:27;2.70;99.90
57088;DHT22;42965;52.846;6.614;2023-12-07T15:36:53;2.70;99.90
57088;DHT22;42965;52.846;6.614;2023-12-07T15:39:20;2.70;99.90
57088;DHT22;42965;52.846;6.614;2023-12-07T15:41:46;2.70;99.90
57088;DHT22;42965;52.846;6.614;2023-12-07T15:44:12;2.60;99.90
57088;DHT22;42965;52.846;6.614;2023-12-07T15:46:38;2.60;99.90
57088;DHT22;42965;52.846;6.614;2023-12-07T15:49:04;2.60;99.90
57088;DHT22;42965;52.846;6.614;2023-12-07T15:51:31;2.60;99.90
57088;DHT22;42965;52.846;6.614;2023-12-07T15:53:57;2.60;99.90